createdAt,value
2022-11-03T00:01:46.720Z,10.72
2022-11-03T00:04:17.363Z,10.67
2022-11-03T00:06:46.928Z,10.65
2022-11-03T00:09:17.593Z,10.71
2022-11-03T00:11:46.932Z,10.75
2022-11-03T00:14:15.854Z,10.67
2022-11-03T00:16:45.944Z,10.68
2022-11-03T00:19:16.254Z,10.69
2022-11-03T00:21:45.719Z,10.75
2022-11-03T00:24:14.591Z,10.81
2022-11-03T00:26:42.973Z,10.82
2022-11-03T00:29:12.956Z,10.75
2022-11-03T00:31:42.940Z,10.71
2022-11-03T00:34:12.862Z,10.72
2022-11-03T00:36:42.699Z,10.79
2022-11-03T00:39:11.884Z,10.84
2022-11-03T00:41:40.855Z,10.81
2022-11-03T00:44:10.964Z,10.81
2022-11-03T00:46:39.027Z,10.86
2022-11-03T00:49:07.549Z,10.81
2022-11-03T00:51:37.127Z,10.75
2022-11-03T00:54:06.105Z,10.84
2022-11-03T00:56:36.625Z,10.86
2022-11-03T00:59:07.154Z,10.88
2022-11-03T01:01:40.766Z,10.86
2022-11-03T01:04:30.315Z,11.02
2022-11-03T01:07:01.285Z,10.99
2022-11-03T01:09:32.634Z,10.92
2022-11-03T01:12:02.611Z,10.89
2022-11-03T01:14:33.604Z,10.85
2022-11-03T01:17:01.613Z,10.85
2022-11-03T01:19:30.034Z,10.81
2022-11-03T01:21:59.801Z,10.72
2022-11-03T01:24:27.964Z,10.67
2022-11-03T01:26:56.417Z,10.58
2022-11-03T01:29:24.671Z,10.49
2022-11-03T01:31:52.636Z,10.51
2022-11-03T01:34:23.353Z,10.51
2022-11-03T01:36:51.431Z,10.37
2022-11-03T01:39:21.498Z,10.39
2022-11-03T01:41:52.179Z,10.44
2022-11-03T01:44:30.773Z,10.36
2022-11-03T01:47:10.485Z,10.19
2022-11-03T01:49:45.227Z,10.20
2022-11-03T01:52:18.088Z,10.19
2022-11-03T01:54:53.386Z,10.20
2022-11-03T01:57:25.929Z,10.16
2022-11-03T01:59:58.787Z,10.20
2022-11-03T02:02:27.546Z,10.26
2022-11-03T02:04:57.144Z,10.23
2022-11-03T02:07:31.641Z,10.34
2022-11-03T02:10:01.439Z,10.39
2022-11-03T02:12:31.191Z,10.25
2022-11-03T02:15:03.632Z,10.20
2022-11-03T02:17:36.410Z,10.13
2022-11-03T02:20:07.396Z,10.22
2022-11-03T02:22:59.284Z,10.22
2022-11-03T02:25:45.017Z,10.26
2022-11-03T02:28:16.751Z,10.19
2022-11-03T02:30:47.638Z,10.25
2022-11-03T02:33:30.922Z,10.30
2022-11-03T02:36:06.530Z,10.39
2022-11-03T02:38:39.388Z,10.37
2022-11-03T02:41:10.021Z,10.29
2022-11-03T02:43:40.353Z,10.36
2022-11-03T02:46:12.747Z,10.50
2022-11-03T02:48:41.007Z,10.47
2022-11-03T02:51:09.051Z,10.39
2022-11-03T02:53:41.664Z,10.41
2022-11-03T02:56:15.255Z,10.41
2022-11-03T02:58:49.822Z,10.37
2022-11-03T03:01:21.590Z,10.41
2022-11-03T03:03:54.248Z,10.37
2022-11-03T03:06:28.412Z,10.39
2022-11-03T03:08:59.989Z,10.41
2022-11-03T03:11:39.699Z,10.41
2022-11-03T03:14:12.838Z,10.50
2022-11-03T03:16:52.083Z,10.50
2022-11-03T03:19:27.892Z,10.43
2022-11-03T03:22:00.932Z,10.41
2022-11-03T03:24:37.502Z,10.53
2022-11-03T03:27:12.961Z,10.49
2022-11-03T03:29:46.330Z,10.51
2022-11-03T03:32:19.044Z,10.58
2022-11-03T03:34:49.813Z,10.64
2022-11-03T03:37:20.225Z,10.58
2022-11-03T03:39:49.801Z,10.47
2022-11-03T03:42:22.889Z,10.51
2022-11-03T03:44:54.388Z,10.53
2022-11-03T03:47:27.188Z,10.44
2022-11-03T03:49:55.238Z,10.49
2022-11-03T03:52:23.776Z,10.41
2022-11-03T03:54:53.040Z,10.40
2022-11-03T03:57:24.876Z,10.44
2022-11-03T03:59:53.405Z,10.39
2022-11-03T04:02:21.356Z,10.34
2022-11-03T04:04:50.464Z,10.26
2022-11-03T04:07:40.846Z,10.30
2022-11-03T04:10:12.919Z,10.37
2022-11-03T04:13:00.331Z,10.37
2022-11-03T04:15:58.139Z,10.43
2022-11-03T04:18:43.587Z,10.36
2022-11-03T04:21:32.544Z,10.50
2022-11-03T04:24:01.992Z,10.44
2022-11-03T04:26:30.446Z,10.46
2022-11-03T04:29:01.665Z,10.40
2022-11-03T04:31:35.936Z,10.36
2022-11-03T04:34:05.840Z,10.46
2022-11-03T04:36:34.228Z,10.40
2022-11-03T04:39:02.634Z,10.41
2022-11-03T04:41:34.420Z,10.37
2022-11-03T04:44:06.667Z,10.40
2022-11-03T04:46:35.486Z,10.36
2022-11-03T04:49:06.867Z,10.39
2022-11-03T04:51:36.167Z,10.32
2022-11-03T04:54:08.462Z,10.26
2022-11-03T04:56:36.605Z,10.30
2022-11-03T04:59:11.886Z,10.28
2022-11-03T05:01:40.595Z,10.23
2022-11-03T05:04:13.231Z,10.23
2022-11-03T05:06:42.917Z,10.15
2022-11-03T05:09:16.881Z,10.16
2022-11-03T05:11:47.273Z,10.26
2022-11-03T05:14:18.053Z,10.23
2022-11-03T05:16:47.747Z,10.20
2022-11-03T05:19:24.315Z,10.19
2022-11-03T05:21:55.050Z,10.16
2022-11-03T05:24:26.417Z,10.12
2022-11-03T05:26:57.035Z,10.15
2022-11-03T05:29:30.457Z,10.12
2022-11-03T05:31:58.533Z,10.17
2022-11-03T05:34:38.985Z,10.30
2022-11-03T05:37:27.042Z,10.16
2022-11-03T05:39:59.834Z,10.09
2022-11-03T05:42:33.388Z,10.12
2022-11-03T05:45:06.191Z,10.08
2022-11-03T05:47:38.746Z,10.03
2022-11-03T05:50:20.211Z,10.03
2022-11-03T05:52:50.908Z,10.05
2022-11-03T05:55:28.559Z,10.02
2022-11-03T05:57:58.414Z,10.09
2022-11-03T06:00:30.520Z,10.03
2022-11-03T06:02:59.488Z,10.06
2022-11-03T06:05:28.540Z,10.02
2022-11-03T06:08:01.770Z,9.97
2022-11-03T06:10:32.280Z,9.95
2022-11-03T06:13:04.323Z,10.01
2022-11-03T06:15:36.308Z,10.01
2022-11-03T06:18:16.223Z,10.01
2022-11-03T06:20:50.924Z,10.02
2022-11-03T06:23:21.142Z,10.01
2022-11-03T06:25:51.190Z,10.01
2022-11-03T06:28:22.959Z,9.98
2022-11-03T06:30:52.938Z,10.01
2022-11-03T06:33:26.614Z,10.02
2022-11-03T06:35:56.578Z,9.98
2022-11-03T06:38:31.599Z,10.17
2022-11-03T06:41:00.146Z,10.20
2022-11-03T06:43:36.317Z,10.28
2022-11-03T06:46:15.761Z,10.25
2022-11-03T06:48:43.754Z,10.29
2022-11-03T06:51:18.084Z,10.29
2022-11-03T06:53:46.113Z,10.26
2022-11-03T06:56:17.659Z,10.29
2022-11-03T06:58:48.313Z,10.29
2022-11-03T07:01:23.078Z,10.32
2022-11-03T07:03:52.056Z,10.36
2022-11-03T07:06:24.991Z,10.41
2022-11-03T07:08:56.265Z,10.51
2022-11-03T07:11:26.764Z,10.53
2022-11-03T07:13:56.753Z,10.64
2022-11-03T07:16:30.254Z,10.69
2022-11-03T07:19:01.377Z,10.77
2022-11-03T07:21:35.760Z,10.82
2022-11-03T07:24:14.896Z,10.89
2022-11-03T07:26:43.046Z,10.89
2022-11-03T07:29:19.584Z,10.98
2022-11-03T07:31:54.497Z,10.92
2022-11-03T07:34:25.810Z,10.92
2022-11-03T07:36:55.905Z,11.03
2022-11-03T07:39:25.661Z,11.01
2022-11-03T07:41:53.956Z,11.01
2022-11-03T07:44:22.639Z,11.02
2022-11-03T07:46:52.541Z,11.15
2022-11-03T07:49:27.462Z,11.22
2022-11-03T07:51:57.126Z,11.27
2022-11-03T07:54:29.578Z,11.27
2022-11-03T07:57:00.401Z,11.38
2022-11-03T07:59:32.238Z,11.51
2022-11-03T08:02:04.633Z,11.50
2022-11-03T08:04:36.195Z,11.60
2022-11-03T08:07:05.187Z,11.67
2022-11-03T08:09:33.082Z,11.72
2022-11-03T08:12:01.605Z,11.70
2022-11-03T08:14:31.059Z,11.74
2022-11-03T08:16:59.095Z,11.71
2022-11-03T08:19:28.983Z,11.75
2022-11-03T08:21:57.151Z,11.79
2022-11-03T08:24:25.087Z,11.96
2022-11-03T08:26:54.046Z,12.02
2022-11-03T08:29:21.993Z,12.12
2022-11-03T08:31:50.372Z,12.16
2022-11-03T08:34:18.256Z,12.15
2022-11-03T08:36:47.585Z,12.15
2022-11-03T08:39:15.515Z,12.19
2022-11-03T08:41:43.582Z,12.30
2022-11-03T08:44:11.575Z,12.24
2022-11-03T08:46:39.530Z,12.36
2022-11-03T08:49:07.472Z,12.36
2022-11-03T08:51:40.186Z,12.40
2022-11-03T08:54:13.496Z,12.47
2022-11-03T08:56:41.837Z,12.36
2022-11-03T08:59:10.255Z,12.43
2022-11-03T09:01:38.282Z,12.37
2022-11-03T09:04:06.467Z,12.34
2022-11-03T09:06:34.855Z,12.45
2022-11-03T09:11:53.315Z,12.57
2022-11-03T09:14:21.067Z,12.58
2022-11-03T09:16:49.032Z,12.71
2022-11-03T09:19:17.903Z,12.77
2022-11-03T09:21:45.810Z,12.85
2022-11-03T09:24:14.625Z,12.99
2022-11-03T09:26:42.541Z,13.00
2022-11-03T09:29:11.901Z,12.97
2022-11-03T09:31:40.302Z,13.03
2022-11-03T09:34:08.319Z,13.02
2022-11-03T09:36:36.212Z,13.10
2022-11-03T09:39:05.353Z,13.13
2022-11-03T09:41:55.746Z,13.19
2022-11-03T09:44:24.057Z,13.12
2022-11-03T09:46:56.920Z,13.31
2022-11-03T09:49:25.970Z,13.37
2022-11-03T09:51:54.241Z,13.44
2022-11-03T09:54:22.898Z,13.55
2022-11-03T09:56:50.869Z,13.55
2022-11-03T09:59:20.467Z,13.51
2022-11-03T10:01:54.019Z,13.53
2022-11-03T10:04:27.927Z,13.50
2022-11-03T10:06:57.331Z,13.53
2022-11-03T10:09:26.825Z,13.46
2022-11-03T10:11:56.852Z,13.47
2022-11-03T10:14:25.296Z,13.48
2022-11-03T10:17:00.241Z,13.62
2022-11-03T10:19:28.386Z,13.74
2022-11-03T10:21:56.308Z,13.64
2022-11-03T10:24:25.165Z,13.75
2022-11-03T10:26:56.541Z,13.66
2022-11-03T10:29:25.984Z,13.61
2022-11-03T10:31:58.910Z,13.62
2022-11-03T10:34:35.540Z,13.53
2022-11-03T10:37:21.178Z,13.72
2022-11-03T10:39:49.993Z,13.64
2022-11-03T10:42:21.214Z,13.85
2022-11-03T10:44:51.917Z,13.79
2022-11-03T10:47:34.386Z,13.82
2022-11-03T10:50:20.683Z,13.90
2022-11-03T10:52:49.971Z,13.87
2022-11-03T10:55:22.119Z,13.89
2022-11-03T10:57:55.953Z,13.65
2022-11-03T11:00:26.153Z,13.86
2022-11-03T11:03:03.126Z,13.89
2022-11-03T11:05:31.198Z,14.17
2022-11-03T11:08:00.608Z,14.14
2022-11-03T11:10:30.319Z,14.24
2022-11-03T11:13:25.802Z,14.18
2022-11-03T11:15:56.018Z,14.27
2022-11-03T11:19:22.511Z,14.42
2022-11-03T11:22:00.869Z,14.44
2022-11-03T11:24:57.752Z,14.12
2022-11-03T11:27:58.585Z,14.13
2022-11-03T11:31:03.882Z,14.08
2022-11-03T11:33:35.789Z,14.00
2022-11-03T11:36:07.499Z,14.12
2022-11-03T11:39:09.779Z,14.00
2022-11-03T11:42:10.262Z,14.10
2022-11-03T11:44:54.754Z,14.08
2022-11-03T11:47:34.978Z,14.09
2022-11-03T11:50:24.302Z,14.03
2022-11-03T11:52:58.030Z,14.08
2022-11-03T11:55:36.427Z,14.00
2022-11-03T11:58:06.931Z,13.96
2022-11-03T12:00:37.496Z,14.09
2022-11-03T12:03:07.560Z,13.99
2022-11-03T12:05:37.219Z,14.05
2022-11-03T12:08:18.219Z,14.13
2022-11-03T12:10:56.016Z,14.21
2022-11-03T12:13:47.303Z,14.09
2022-11-03T12:16:32.657Z,14.13
2022-11-03T12:19:33.621Z,14.06
2022-11-03T12:22:03.545Z,14.05
2022-11-03T12:24:46.892Z,13.95
2022-11-03T12:27:36.239Z,13.86
2022-11-03T12:30:08.603Z,13.79
2022-11-03T12:32:37.750Z,13.85
2022-11-03T12:35:07.405Z,13.79
2022-11-03T12:37:35.787Z,13.89
2022-11-03T12:40:04.211Z,13.95
2022-11-03T12:42:35.153Z,13.96
2022-11-03T12:45:04.941Z,13.96
2022-11-03T12:47:32.812Z,13.92
2022-11-03T12:50:00.687Z,13.92
2022-11-03T12:52:29.151Z,13.87
2022-11-03T12:54:57.161Z,13.82
2022-11-03T12:57:25.937Z,13.65
2022-11-03T12:59:55.694Z,13.72
2022-11-03T13:02:23.987Z,13.76
2022-11-03T13:04:52.544Z,13.98
2022-11-03T13:07:26.639Z,14.40
2022-11-03T13:09:58.059Z,15.40
2022-11-03T13:12:36.621Z,16.73
2022-11-03T13:15:10.547Z,17.90
2022-11-03T13:18:11.552Z,16.72
2022-11-03T13:20:27.423Z,15.61
2022-11-03T13:22:55.783Z,14.64
2022-11-03T13:25:24.507Z,14.42
2022-11-03T13:27:54.897Z,14.34
2022-11-03T13:30:25.573Z,14.38
2022-11-03T13:32:53.769Z,14.46
2022-11-03T13:35:21.691Z,14.27
2022-11-03T13:37:51.938Z,14.26
2022-11-03T13:43:09.806Z,14.14
2022-11-03T13:45:39.401Z,14.16
2022-11-03T13:50:57.081Z,14.30
2022-11-03T13:56:21.143Z,14.26
2022-11-03T14:01:41.657Z,13.96
2022-11-03T14:06:59.590Z,13.76
2022-11-03T14:09:28.322Z,13.69
2022-11-03T14:12:17.176Z,13.69
2022-11-03T14:14:46.935Z,13.65
2022-11-03T14:17:16.350Z,13.55
2022-11-03T14:19:50.157Z,13.50
2022-11-03T14:22:20.488Z,13.57
2022-11-03T14:24:48.757Z,13.43
2022-11-03T14:27:18.342Z,13.40
2022-11-03T14:29:50.110Z,13.30
2022-11-03T14:32:20.628Z,13.34
2022-11-03T14:34:48.872Z,13.36
2022-11-03T14:37:17.723Z,13.34
2022-11-03T14:39:46.062Z,13.30
2022-11-03T14:42:15.956Z,13.24
2022-11-03T14:44:47.497Z,13.19
2022-11-03T14:47:18.722Z,13.19
2022-11-03T14:49:49.343Z,13.19
2022-11-03T14:52:17.890Z,13.20
2022-11-03T14:54:46.318Z,13.21
2022-11-03T14:57:14.327Z,13.17
2022-11-03T14:59:42.330Z,13.17
2022-11-03T15:02:11.845Z,13.16
2022-11-03T15:04:39.887Z,13.12
2022-11-03T15:07:09.627Z,13.12
2022-11-03T15:09:38.395Z,13.09
2022-11-03T15:12:06.606Z,13.12
2022-11-03T15:14:35.230Z,13.12
2022-11-03T15:17:03.231Z,13.14
2022-11-03T15:19:31.254Z,13.13
2022-11-03T15:22:01.982Z,13.12
2022-11-03T15:27:19.817Z,13.17
2022-11-03T15:29:47.723Z,13.20
2022-11-03T15:32:16.049Z,13.16
2022-11-03T15:34:44.422Z,13.20
2022-11-03T15:37:12.448Z,13.13
2022-11-03T15:39:41.969Z,13.13
2022-11-03T15:42:10.805Z,13.16
2022-11-03T15:44:38.730Z,13.17
2022-11-03T15:47:07.468Z,13.16
2022-11-03T15:49:36.349Z,13.13
2022-11-03T15:52:04.374Z,13.10
2022-11-03T15:54:32.362Z,13.07
2022-11-03T15:57:02.948Z,13.03
2022-11-03T15:59:30.980Z,13.10
2022-11-03T16:02:08.683Z,13.10
2022-11-03T16:04:48.252Z,13.10
2022-11-03T16:07:16.249Z,13.09
2022-11-03T16:09:44.662Z,13.07
2022-11-03T16:12:14.526Z,13.03
2022-11-03T16:14:42.318Z,13.06
2022-11-03T16:17:10.303Z,13.06
2022-11-03T16:19:39.214Z,13.07
2022-11-03T16:22:07.207Z,13.05
2022-11-03T16:24:37.308Z,13.06
2022-11-03T16:27:05.671Z,13.05
2022-11-03T16:29:35.023Z,13.07
2022-11-03T16:32:03.817Z,13.07
2022-11-03T16:34:31.777Z,13.09
2022-11-03T16:37:00.802Z,13.07
2022-11-03T16:39:30.429Z,13.00
2022-11-03T16:41:58.503Z,12.99
2022-11-03T16:44:27.583Z,12.96
2022-11-03T16:46:57.925Z,12.85
2022-11-03T16:49:25.885Z,12.93
2022-11-03T16:51:54.316Z,12.85
2022-11-03T16:54:23.083Z,12.91
2022-11-03T16:56:54.732Z,12.93
2022-11-03T16:59:26.335Z,12.93
2022-11-03T17:01:55.468Z,12.97
2022-11-03T17:04:25.041Z,12.96
2022-11-03T17:06:53.687Z,12.97
2022-11-03T17:09:21.765Z,12.97
2022-11-03T17:11:50.178Z,12.97
2022-11-03T17:14:18.081Z,12.97
2022-11-03T17:16:47.583Z,12.89
2022-11-03T17:19:16.353Z,12.88
2022-11-03T17:21:46.145Z,12.85
2022-11-03T17:24:15.022Z,12.85
2022-11-03T17:26:53.682Z,12.81
2022-11-03T17:29:25.621Z,12.79
2022-11-03T17:31:53.792Z,12.86
2022-11-03T17:34:25.479Z,12.86
2022-11-03T17:36:55.156Z,12.89
2022-11-03T17:39:29.452Z,12.86
2022-11-03T17:42:08.439Z,12.84
2022-11-03T17:44:37.493Z,12.75
2022-11-03T17:47:05.462Z,12.78
2022-11-03T17:49:33.986Z,12.69
2022-11-03T17:52:03.921Z,12.60
2022-11-03T17:54:32.509Z,12.48
2022-11-03T17:57:02.898Z,12.40
2022-11-03T17:59:31.054Z,12.34
2022-11-03T18:01:59.092Z,12.26
2022-11-03T18:04:28.149Z,12.16
2022-11-03T18:06:56.047Z,12.09
2022-11-03T18:09:25.848Z,12.10
2022-11-03T18:12:11.956Z,12.02
2022-11-03T18:14:40.534Z,12.00
2022-11-03T18:17:10.298Z,11.96
2022-11-03T18:19:38.657Z,11.92
2022-11-03T18:22:07.391Z,11.89
2022-11-03T18:24:37.207Z,11.81
2022-11-03T18:27:11.259Z,11.91
2022-11-03T18:29:39.269Z,11.96
2022-11-03T18:32:07.474Z,11.92
2022-11-03T18:34:37.074Z,11.86
2022-11-03T18:37:04.922Z,11.71
2022-11-03T18:39:33.269Z,11.63
2022-11-03T18:42:02.933Z,11.55
2022-11-03T18:44:31.268Z,11.47
2022-11-03T18:46:59.606Z,11.36
2022-11-03T18:49:30.208Z,11.27
2022-11-03T18:52:03.801Z,11.24
2022-11-03T18:54:33.844Z,11.22
2022-11-03T18:57:04.141Z,11.13
2022-11-03T18:59:35.019Z,11.09
2022-11-03T19:02:03.300Z,11.13
2022-11-03T19:04:32.164Z,11.09
2022-11-03T19:07:02.902Z,11.02
2022-11-03T19:09:31.553Z,11.05
2022-11-03T19:11:59.533Z,11.02
2022-11-03T19:14:32.939Z,11.02
2022-11-03T19:17:21.964Z,11.02
2022-11-03T19:19:51.695Z,10.96
2022-11-03T19:22:21.246Z,10.96
2022-11-03T19:24:50.016Z,10.95
2022-11-03T19:27:21.542Z,10.99
2022-11-03T19:29:50.925Z,11.05
2022-11-03T19:32:24.840Z,10.96
2022-11-03T19:34:57.060Z,11.06
2022-11-03T19:37:30.990Z,11.03
2022-11-03T19:40:02.842Z,11.05
2022-11-03T19:42:31.223Z,11.06
2022-11-03T19:45:02.043Z,11.09
2022-11-03T19:47:33.456Z,11.09
2022-11-03T19:50:02.738Z,11.09
2022-11-03T19:52:32.815Z,11.09
2022-11-03T19:55:05.512Z,11.12
2022-11-03T19:57:34.155Z,11.13
2022-11-03T20:00:03.991Z,11.13
2022-11-03T20:02:36.367Z,11.15
2022-11-03T20:05:04.854Z,11.15
2022-11-03T20:07:33.044Z,11.15
2022-11-03T20:10:02.663Z,11.11
2022-11-03T20:12:32.303Z,11.06
2022-11-03T20:15:00.267Z,11.05
2022-11-03T20:17:30.181Z,11.02
2022-11-03T20:19:57.906Z,11.03
2022-11-03T20:22:30.235Z,10.99
2022-11-03T20:25:03.382Z,10.99
2022-11-03T20:27:32.930Z,10.99
2022-11-03T20:30:01.114Z,11.01
2022-11-03T20:32:30.431Z,11.01
2022-11-03T20:34:59.144Z,11.03
2022-11-03T20:37:27.109Z,11.03
2022-11-03T20:39:55.503Z,11.08
2022-11-03T20:42:26.234Z,11.02
2022-11-03T20:44:54.736Z,11.02
2022-11-03T20:47:23.085Z,10.98
2022-11-03T20:49:52.471Z,10.95
2022-11-03T20:52:20.608Z,10.95
2022-11-03T20:54:54.958Z,10.89
2022-11-03T20:57:23.408Z,10.88
2022-11-03T20:59:51.329Z,10.89
2022-11-03T21:02:19.879Z,10.92
2022-11-03T21:04:47.966Z,10.84
2022-11-03T21:07:17.371Z,10.88
2022-11-03T21:09:45.761Z,10.77
2022-11-03T21:12:15.329Z,10.78
2022-11-03T21:15:00.199Z,10.77
2022-11-03T21:17:46.244Z,10.77
2022-11-03T21:20:14.759Z,10.75
2022-11-03T21:22:53.278Z,10.75
2022-11-03T21:25:24.452Z,10.69
2022-11-03T21:27:53.747Z,10.75
2022-11-03T21:30:22.801Z,10.75
2022-11-03T21:32:50.795Z,10.74
2022-11-03T21:35:20.658Z,10.75
2022-11-03T21:37:50.307Z,10.74
2022-11-03T21:40:19.511Z,10.75
2022-11-03T21:43:04.787Z,10.75
2022-11-03T21:45:34.182Z,10.74
2022-11-03T21:48:19.601Z,10.71
2022-11-03T21:50:48.500Z,10.77
2022-11-03T21:53:17.920Z,10.74
2022-11-03T21:55:48.620Z,10.75
2022-11-03T21:58:16.666Z,10.75
2022-11-03T22:00:47.107Z,10.78
2022-11-03T22:03:15.730Z,10.84
2022-11-03T22:05:43.747Z,10.88
2022-11-03T22:08:12.574Z,10.89
2022-11-03T22:10:41.878Z,10.92
2022-11-03T22:13:11.298Z,10.94
2022-11-03T22:15:56.844Z,11.05
2022-11-03T22:18:25.914Z,10.96
2022-11-03T22:21:11.144Z,11.02
2022-11-03T22:23:57.272Z,11.02
2022-11-03T22:26:44.528Z,11.03
2022-11-03T22:29:30.668Z,11.02
2022-11-03T22:31:58.691Z,11.08
2022-11-03T22:34:44.447Z,11.06
2022-11-03T22:37:12.404Z,11.13
2022-11-03T22:39:57.916Z,11.13
2022-11-03T22:45:30.569Z,11.23
2022-11-03T22:47:58.562Z,11.19
2022-11-03T22:50:26.458Z,11.20
2022-11-03T22:52:55.280Z,11.23
2022-11-03T22:55:22.281Z,11.24
2022-11-03T22:57:52.283Z,11.24
2022-11-03T23:00:22.749Z,11.18
2022-11-03T23:02:54.014Z,11.11
2022-11-03T23:05:22.898Z,11.09
2022-11-03T23:07:50.806Z,11.06
2022-11-03T23:10:19.444Z,11.02
2022-11-03T23:12:48.127Z,11.02
2022-11-03T23:15:35.515Z,11.02
2022-11-03T23:18:23.084Z,11.09
2022-11-03T23:21:09.027Z,11.08
2022-11-03T23:23:56.495Z,11.11
2022-11-03T23:26:26.145Z,11.11
2022-11-03T23:28:55.464Z,11.13
2022-11-03T23:31:24.738Z,11.13
2022-11-03T23:33:53.421Z,11.08
2022-11-03T23:36:21.842Z,11.16
2022-11-03T23:38:49.824Z,11.16
2022-11-03T23:41:19.879Z,11.13
2022-11-03T23:43:48.384Z,11.16
2022-11-03T23:46:36.245Z,11.16
2022-11-03T23:49:06.634Z,11.13
2022-11-03T23:51:36.921Z,11.16
2022-11-03T23:54:06.297Z,11.13
2022-11-03T23:56:54.237Z,11.15
2022-11-03T23:59:22.294Z,11.16
